Time;durP1;ratioP1;P1;durP2;ratioP2;P2;SDS_P1;SDS_P2;PMS_P1;PMS_P2;Temp;Humidity;BMP_temperature;BMP_pressure;BME280_temperature;BME280_humidity;BME280_pressure;Samples;Min_cycle;Max_cycle;Signal;HPM_P1;HPM_P2
2023/05/31 00:00:38;;;;;;;3.28;2.58;;;;;;;;;;4999006;28;20030;-70
2023/05/31 00:03:03;;;;;;;3.03;2.50;;;;;;;;;;5000603;28;20026;-69
2023/05/31 00:05:28;;;;;;;3.47;2.53;;;;;;;;;;5004729;28;20044;-71
2023/05/31 00:07:54;;;;;;;3.93;2.67;;;;;;;;;;5002062;28;20561;-62
2023/05/31 00:10:19;;;;;;;3.70;2.70;;;;;;;;;;4993120;28;20336;-71
2023/05/31 00:12:44;;;;;;;4.15;2.50;;;;;;;;;;4992332;28;20043;-68
2023/05/31 00:15:10;;;;;;;4.30;2.80;;;;;;;;;;4990243;28;20042;-70
2023/05/31 00:17:35;;;;;;;4.05;2.90;;;;;;;;;;4999994;28;20047;-72
2023/05/31 00:20:00;;;;;;;4.50;2.20;;;;;;;;;;4999398;28;20030;-70
2023/05/31 00:22:25;;;;;;;3.63;2.50;;;;;;;;;;5003890;28;20439;-70
2023/05/31 00:24:51;;;;;;;3.33;2.40;;;;;;;;;;4996149;28;20578;-70
2023/05/31 00:27:16;;;;;;;2.83;2.35;;;;;;;;;;4994383;28;20289;-70
2023/05/31 00:29:41;;;;;;;3.30;2.70;;;;;;;;;;4991774;28;20556;-71
2023/05/31 00:32:07;;;;;;;3.27;2.67;;;;;;;;;;4989176;28;20547;-65
2023/05/31 00:34:32;;;;;;;4.68;2.88;;;;;;;;;;4980021;28;20025;-69
2023/05/31 00:36:57;;;;;;;3.67;2.60;;;;;;;;;;4991349;28;20040;-69
2023/05/31 00:39:23;;;;;;;3.63;2.47;;;;;;;;;;4976021;28;20042;-70
2023/05/31 00:41:48;;;;;;;4.25;2.88;;;;;;;;;;4994378;28;20037;-67
2023/05/31 00:44:13;;;;;;;3.33;2.70;;;;;;;;;;4999799;28;20045;-67
2023/05/31 00:46:39;;;;;;;5.40;2.93;;;;;;;;;;4998957;28;20794;-69
2023/05/31 00:49:04;;;;;;;3.33;2.40;;;;;;;;;;4987690;28;20363;-69
2023/05/31 00:51:31;;;;;;;4.35;2.67;;;;;;;;;;4997970;28;20272;-64
2023/05/31 00:53:57;;;;;;;4.03;2.95;;;;;;;;;;4999220;28;20052;-72
2023/05/31 00:56:22;;;;;;;3.40;2.33;;;;;;;;;;5001272;28;20494;-68
2023/05/31 00:58:47;;;;;;;3.53;2.45;;;;;;;;;;5002739;28;20044;-69
2023/05/31 01:01:13;;;;;;;2.72;2.40;;;;;;;;;;5002049;28;20038;-67
2023/05/31 01:03:38;;;;;;;2.97;2.42;;;;;;;;;;5001643;28;20049;-65
2023/05/31 01:06:04;;;;;;;2.67;2.40;;;;;;;;;;5001863;28;20038;-69
2023/05/31 01:08:29;;;;;;;4.45;2.42;;;;;;;;;;5003875;28;20335;-64
2023/05/31 01:10:55;;;;;;;3.60;2.53;;;;;;;;;;4988655;28;20427;-70
2023/05/31 01:13:24;;;;;;;3.42;2.50;;;;;;;;;;5001638;28;20522;-70
2023/05/31 01:15:53;;;;;;;3.35;2.60;;;;;;;;;;5001532;28;20516;-71
2023/05/31 01:18:24;;;;;;;3.85;2.78;;;;;;;;;;5001416;28;20034;-67
2023/05/31 01:20:50;;;;;;;4.35;2.70;;;;;;;;;;5000973;28;20049;-70
2023/05/31 01:23:16;;;;;;;3.72;2.78;;;;;;;;;;5002100;28;20022;-67
2023/05/31 01:25:50;;;;;;;4.00;3.00;;;;;;;;;;5001643;28;20474;-70
2023/05/31 01:28:16;;;;;;;3.92;2.83;;;;;;;;;;5000114;28;20164;-68
2023/05/31 01:30:41;;;;;;;3.80;3.10;;;;;;;;;;5000742;28;20129;-68
2023/05/31 01:33:07;;;;;;;3.83;3.05;;;;;;;;;;4986312;28;20261;-71
2023/05/31 01:35:32;;;;;;;3.35;2.63;;;;;;;;;;5002857;28;20487;-65
2023/05/31 01:37:58;;;;;;;4.27;2.50;;;;;;;;;;5004021;28;20626;-65
2023/05/31 01:40:23;;;;;;;4.97;3.13;;;;;;;;;;4998557;28;20486;-69
2023/05/31 01:42:48;;;;;;;3.30;2.70;;;;;;;;;;5001399;28;20492;-70
2023/05/31 01:45:13;;;;;;;3.77;2.80;;;;;;;;;;5001975;28;20120;-71
2023/05/31 01:47:40;;;;;;;3.80;3.00;;;;;;;;;;5000220;28;20127;-66
2023/05/31 01:50:05;;;;;;;3.58;2.50;;;;;;;;;;4999677;28;20316;-71
2023/05/31 01:52:31;;;;;;;3.27;2.70;;;;;;;;;;4985301;28;20127;-68
2023/05/31 01:54:56;;;;;;;3.03;2.63;;;;;;;;;;4981277;28;20653;-64
2023/05/31 01:57:21;;;;;;;3.60;2.93;;;;;;;;;;4996142;28;20034;-71
2023/05/31 01:59:46;;;;;;;3.15;2.80;;;;;;;;;;5001131;28;20128;-68
2023/05/31 02:02:12;;;;;;;3.63;2.70;;;;;;;;;;4975051;28;20042;-71
2023/05/31 02:04:37;;;;;;;3.67;3.07;;;;;;;;;;4999501;28;20479;-70
2023/05/31 02:07:02;;;;;;;3.17;2.80;;;;;;;;;;5003085;28;20038;-71
2023/05/31 02:09:28;;;;;;;3.28;2.65;;;;;;;;;;4991416;28;20378;-65
2023/05/31 02:11:53;;;;;;;3.73;2.67;;;;;;;;;;5001862;28;20117;-68
2023/05/31 02:14:18;;;;;;;3.67;2.67;;;;;;;;;;5003024;28;20292;-68
2023/05/31 02:16:43;;;;;;;3.53;2.67;;;;;;;;;;4973915;28;20054;-70
2023/05/31 02:19:13;;;;;;;3.87;2.80;;;;;;;;;;5002657;28;20038;-69
2023/05/31 02:21:39;;;;;;;3.38;2.92;;;;;;;;;;4997923;28;20069;-71
2023/05/31 02:24:04;;;;;;;4.38;2.70;;;;;;;;;;4997757;28;20026;-70
2023/05/31 02:26:30;;;;;;;3.53;2.53;;;;;;;;;;4992323;28;20034;-71
2023/05/31 02:28:55;;;;;;;3.83;2.67;;;;;;;;;;4987086;28;20031;-70
2023/05/31 02:31:21;;;;;;;3.70;2.40;;;;;;;;;;4986164;28;20540;-71
2023/05/31 02:33:46;;;;;;;3.90;3.03;;;;;;;;;;4985165;28;20437;-72
2023/05/31 02:36:12;;;;;;;3.38;2.72;;;;;;;;;;4985805;28;20446;-71
2023/05/31 02:38:37;;;;;;;3.20;2.50;;;;;;;;;;4985079;28;20034;-68
2023/05/31 02:41:03;;;;;;;4.10;2.85;;;;;;;;;;4998157;28;20125;-66
2023/05/31 02:43:30;;;;;;;5.20;2.60;;;;;;;;;;5000702;28;20372;-68
2023/05/31 02:45:55;;;;;;;3.58;2.70;;;;;;;;;;4984322;28;20018;-71
2023/05/31 02:48:20;;;;;;;3.72;2.78;;;;;;;;;;4988393;28;20029;-67
2023/05/31 02:50:45;;;;;;;3.63;2.80;;;;;;;;;;4986335;28;20038;-71
2023/05/31 02:53:11;;;;;;;3.85;2.58;;;;;;;;;;4998534;28;20034;-70
2023/05/31 02:55:39;;;;;;;4.87;2.83;;;;;;;;;;4997933;28;20392;-72
2023/05/31 02:58:06;;;;;;;3.58;2.65;;;;;;;;;;5001857;28;20596;-71
2023/05/31 03:00:31;;;;;;;3.45;2.75;;;;;;;;;;4993796;28;20053;-70
2023/05/31 03:02:56;;;;;;;4.25;3.00;;;;;;;;;;5000105;28;20119;-71
2023/05/31 03:05:23;;;;;;;3.20;2.50;;;;;;;;;;4990190;28;20032;-64
2023/05/31 03:07:48;;;;;;;3.78;2.28;;;;;;;;;;5001480;28;20034;-70
2023/05/31 03:10:13;;;;;;;3.43;2.60;;;;;;;;;;4977367;28;20068;-71
2023/05/31 03:12:38;;;;;;;3.20;2.70;;;;;;;;;;4995877;28;20282;-70
2023/05/31 03:15:04;;;;;;;3.33;2.70;;;;;;;;;;4994692;28;20046;-63
2023/05/31 03:17:29;;;;;;;4.38;2.67;;;;;;;;;;4989044;28;20813;-73
2023/05/31 03:19:55;;;;;;;3.70;2.35;;;;;;;;;;4990663;28;20038;-73
2023/05/31 03:22:22;;;;;;;3.20;2.50;;;;;;;;;;4990498;28;20050;-67
2023/05/31 03:24:47;;;;;;;3.05;2.25;;;;;;;;;;4990744;28;20047;-75
2023/05/31 03:27:13;;;;;;;4.17;2.63;;;;;;;;;;4991035;28;20512;-75
2023/05/31 03:29:40;;;;;;;2.78;2.35;;;;;;;;;;5004963;28;20571;-73
2023/05/31 03:32:05;;;;;;;3.17;2.42;;;;;;;;;;4994728;28;20492;-72
2023/05/31 03:34:32;;;;;;;3.95;2.25;;;;;;;;;;4987993;28;20034;-74
2023/05/31 03:36:58;;;;;;;3.47;2.50;;;;;;;;;;4989851;28;20435;-75
2023/05/31 03:39:23;;;;;;;4.70;2.30;;;;;;;;;;4990273;28;20023;-68
2023/05/31 03:41:48;;;;;;;3.03;2.40;;;;;;;;;;4994053;28;20582;-71
2023/05/31 03:44:13;;;;;;;4.10;2.70;;;;;;;;;;4995374;28;20277;-71
2023/05/31 03:46:39;;;;;;;4.00;2.40;;;;;;;;;;4993596;28;20281;-70
2023/05/31 03:49:05;;;;;;;3.25;2.40;;;;;;;;;;4994342;28;20694;-67
2023/05/31 03:51:31;;;;;;;3.30;2.75;;;;;;;;;;4996246;28;20041;-75
2023/05/31 03:53:56;;;;;;;4.65;2.50;;;;;;;;;;4986745;28;20108;-72
2023/05/31 03:56:21;;;;;;;4.27;2.50;;;;;;;;;;4998691;28;20030;-74
2023/05/31 03:58:46;;;;;;;4.82;2.33;;;;;;;;;;5001239;28;20065;-67
2023/05/31 04:01:12;;;;;;;3.90;2.57;;;;;;;;;;4986745;28;20038;-66
2023/05/31 04:03:37;;;;;;;3.25;2.50;;;;;;;;;;4987013;28;20037;-69
2023/05/31 04:06:03;;;;;;;3.53;2.63;;;;;;;;;;5004667;28;20520;-69
2023/05/31 04:08:28;;;;;;;3.75;2.67;;;;;;;;;;5004280;28;20553;-66
2023/05/31 04:10:53;;;;;;;4.53;2.90;;;;;;;;;;5008138;28;20081;-65
2023/05/31 04:13:18;;;;;;;3.20;2.20;;;;;;;;;;5007544;28;20053;-67
2023/05/31 04:15:44;;;;;;;4.50;2.85;;;;;;;;;;5009347;28;20081;-72
2023/05/31 04:18:09;;;;;;;5.53;2.67;;;;;;;;;;5003530;28;20467;-67
2023/05/31 04:20:35;;;;;;;3.20;2.53;;;;;;;;;;5001363;28;20126;-67
2023/05/31 04:23:00;;;;;;;3.70;2.60;;;;;;;;;;4991036;28;20280;-67
2023/05/31 04:25:27;;;;;;;4.80;2.70;;;;;;;;;;5005219;28;20053;-70
2023/05/31 04:27:53;;;;;;;4.20;2.95;;;;;;;;;;4999888;28;20505;-66
2023/05/31 04:30:19;;;;;;;3.95;2.58;;;;;;;;;;4996874;28;20054;-67
2023/05/31 04:32:44;;;;;;;3.80;2.60;;;;;;;;;;5006799;28;20033;-68
2023/05/31 04:35:10;;;;;;;4.67;2.80;;;;;;;;;;4989586;28;20054;-72
2023/05/31 04:37:36;;;;;;;3.53;2.78;;;;;;;;;;5015047;28;20272;-71
2023/05/31 04:40:04;;;;;;;8.35;2.95;;;;;;;;;;5007671;28;20539;-73
2023/05/31 04:42:30;;;;;;;3.65;3.00;;;;;;;;;;5007695;28;20025;-66
2023/05/31 04:44:58;;;;;;;4.50;2.60;;;;;;;;;;5006128;28;20404;-68
2023/05/31 04:47:24;;;;;;;4.18;2.85;;;;;;;;;;4985362;28;20066;-66
2023/05/31 04:49:49;;;;;;;5.03;3.00;;;;;;;;;;5003566;28;20041;-66
2023/05/31 04:52:14;;;;;;;4.17;2.90;;;;;;;;;;5005590;28;20488;-66
2023/05/31 04:54:40;;;;;;;4.30;2.67;;;;;;;;;;5006427;28;20293;-69
2023/05/31 04:57:06;;;;;;;4.47;3.17;;;;;;;;;;4969513;28;20265;-70
2023/05/31 04:59:32;;;;;;;5.35;3.00;;;;;;;;;;4994796;28;20045;-66
2023/05/31 05:01:57;;;;;;;4.18;2.83;;;;;;;;;;4991690;28;20090;-71
2023/05/31 05:04:22;;;;;;;4.60;3.08;;;;;;;;;;5012113;28;20030;-74
2023/05/31 05:06:48;;;;;;;5.93;3.07;;;;;;;;;;5004944;28;20525;-68
2023/05/31 05:09:13;;;;;;;3.60;2.78;;;;;;;;;;4981629;28;20120;-66
2023/05/31 05:11:39;;;;;;;4.73;3.20;;;;;;;;;;4986804;28;20036;-73
2023/05/31 05:14:04;;;;;;;3.88;2.70;;;;;;;;;;4987766;28;20401;-68
2023/05/31 05:16:29;;;;;;;4.73;3.10;;;;;;;;;;5003214;28;20062;-71
2023/05/31 05:18:54;;;;;;;4.38;3.10;;;;;;;;;;5009803;28;20277;-74
2023/05/31 05:21:20;;;;;;;4.50;2.83;;;;;;;;;;4999856;28;20029;-69
2023/05/31 05:23:46;;;;;;;5.37;3.00;;;;;;;;;;5005677;28;20474;-69
2023/05/31 05:26:11;;;;;;;5.40;3.53;;;;;;;;;;4988176;28;20292;-67
2023/05/31 05:28:36;;;;;;;4.07;3.42;;;;;;;;;;5004848;28;20030;-72
2023/05/31 05:31:03;;;;;;;5.10;3.33;;;;;;;;;;5006354;28;20102;-72
2023/05/31 05:33:29;;;;;;;6.07;2.80;;;;;;;;;;5011461;28;20106;-64
2023/05/31 05:35:54;;;;;;;7.05;3.33;;;;;;;;;;5003568;28;20030;-67
2023/05/31 05:38:20;;;;;;;5.13;3.50;;;;;;;;;;5017227;28;20513;-67
2023/05/31 05:40:45;;;;;;;5.38;3.28;;;;;;;;;;5011330;28;20295;-64
2023/05/31 05:43:11;;;;;;;5.63;3.22;;;;;;;;;;5012405;28;20054;-75
2023/05/31 05:45:36;;;;;;;7.27;3.70;;;;;;;;;;5002673;28;20033;-65
2023/05/31 05:48:01;;;;;;;9.30;3.73;;;;;;;;;;5017399;28;20299;-70
2023/05/31 05:50:26;;;;;;;5.73;3.33;;;;;;;;;;5020378;28;20316;-61
2023/05/31 05:52:52;;;;;;;5.47;3.27;;;;;;;;;;5020836;28;20299;-66
2023/05/31 05:55:17;;;;;;;6.80;3.30;;;;;;;;;;4991905;28;20292;-70
2023/05/31 05:57:42;;;;;;;8.20;3.50;;;;;;;;;;5007064;28;20939;-75
2023/05/31 06:00:11;;;;;;;5.93;3.47;;;;;;;;;;5012988;28;20476;-74
2023/05/31 06:02:37;;;;;;;5.13;2.90;;;;;;;;;;5015584;28;20100;-74
2023/05/31 06:05:02;;;;;;;5.60;3.15;;;;;;;;;;4995564;28;20510;-70
2023/05/31 06:07:28;;;;;;;5.65;3.25;;;;;;;;;;5006620;28;20145;-64
2023/05/31 06:09:53;;;;;;;6.00;3.08;;;;;;;;;;5007643;28;20388;-68
2023/05/31 06:12:18;;;;;;;5.43;3.30;;;;;;;;;;5002034;28;20089;-63
2023/05/31 06:14:43;;;;;;;6.50;3.40;;;;;;;;;;5017645;28;20049;-63
2023/05/31 06:17:09;;;;;;;6.53;3.30;;;;;;;;;;4969806;28;20611;-63
2023/05/31 06:19:34;;;;;;;5.13;3.40;;;;;;;;;;4980369;28;20467;-65
2023/05/31 06:22:00;;;;;;;6.38;3.45;;;;;;;;;;4974185;28;20441;-67
2023/05/31 06:24:25;;;;;;;5.68;3.10;;;;;;;;;;5000617;28;20037;-64
2023/05/31 06:26:51;;;;;;;4.70;3.10;;;;;;;;;;4987967;28;20026;-73
2023/05/31 06:29:16;;;;;;;4.87;3.23;;;;;;;;;;4972576;28;20340;-70
2023/05/31 06:31:42;;;;;;;4.82;3.30;;;;;;;;;;4972584;28;20266;-69
2023/05/31 06:34:07;;;;;;;4.78;3.38;;;;;;;;;;4976614;28;20011;-69
2023/05/31 06:36:32;;;;;;;4.20;2.97;;;;;;;;;;4973136;28;20050;-73
2023/05/31 06:38:58;;;;;;;5.00;3.17;;;;;;;;;;4994491;28;20332;-74
2023/05/31 06:41:23;;;;;;;5.60;3.30;;;;;;;;;;4990808;28;20821;-74
2023/05/31 06:43:48;;;;;;;4.90;3.17;;;;;;;;;;4984984;28;20360;-71
2023/05/31 06:46:14;;;;;;;5.37;3.30;;;;;;;;;;4998858;28;20018;-73
2023/05/31 06:48:40;;;;;;;6.05;3.42;;;;;;;;;;4995048;28;20260;-67
2023/05/31 06:51:05;;;;;;;6.35;3.00;;;;;;;;;;4982608;28;20030;-72
2023/05/31 06:53:30;;;;;;;5.50;3.40;;;;;;;;;;4981659;28;20026;-71
2023/05/31 06:55:56;;;;;;;5.50;3.40;;;;;;;;;;4980135;28;20465;-75
2023/05/31 06:58:21;;;;;;;4.80;3.53;;;;;;;;;;4997287;28;20089;-72
2023/05/31 07:00:46;;;;;;;4.60;3.53;;;;;;;;;;4989693;28;20454;-71
2023/05/31 07:03:11;;;;;;;3.88;2.78;;;;;;;;;;4997275;28;20277;-74
2023/05/31 07:05:37;;;;;;;5.13;3.57;;;;;;;;;;4992900;28;20026;-75
2023/05/31 07:08:02;;;;;;;4.87;3.30;;;;;;;;;;4995061;28;20269;-73
2023/05/31 07:10:27;;;;;;;7.60;3.90;;;;;;;;;;4996152;28;20297;-69
2023/05/31 07:12:53;;;;;;;5.40;3.20;;;;;;;;;;4976196;28;20029;-63
2023/05/31 07:15:18;;;;;;;5.13;3.40;;;;;;;;;;4987586;28;20218;-67
2023/05/31 07:17:43;;;;;;;6.55;3.88;;;;;;;;;;5014494;28;20050;-64
2023/05/31 07:20:09;;;;;;;5.70;3.50;;;;;;;;;;5014507;28;20053;-66
2023/05/31 07:22:34;;;;;;;6.25;3.65;;;;;;;;;;4995747;28;20029;-69
2023/05/31 07:24:59;;;;;;;5.78;3.88;;;;;;;;;;5016197;28;20025;-68
2023/05/31 07:27:25;;;;;;;5.72;3.80;;;;;;;;;;5012936;28;20022;-72
2023/05/31 07:29:50;;;;;;;5.30;3.43;;;;;;;;;;5006194;28;20069;-72
2023/05/31 07:32:15;;;;;;;5.53;3.50;;;;;;;;;;5008068;28;20258;-66
2023/05/31 07:34:41;;;;;;;6.57;4.07;;;;;;;;;;5010947;28;20053;-67
2023/05/31 07:37:06;;;;;;;4.25;3.33;;;;;;;;;;4993035;28;20038;-77
2023/05/31 07:39:31;;;;;;;4.53;3.37;;;;;;;;;;5008131;28;20025;-73
2023/05/31 07:41:58;;;;;;;5.63;3.70;;;;;;;;;;4992479;28;20049;-73
2023/05/31 07:44:24;;;;;;;5.07;3.55;;;;;;;;;;4999383;28;20269;-65
2023/05/31 07:46:50;;;;;;;6.15;3.85;;;;;;;;;;4994660;28;20119;-74
2023/05/31 07:49:15;;;;;;;5.68;4.03;;;;;;;;;;5013423;28;20038;-69
2023/05/31 07:51:40;;;;;;;6.47;3.57;;;;;;;;;;5007508;28;20033;-65
2023/05/31 07:54:05;;;;;;;5.30;3.30;;;;;;;;;;4998394;28;20097;-72
2023/05/31 07:56:31;;;;;;;4.77;3.63;;;;;;;;;;5010375;28;20014;-73
2023/05/31 07:58:56;;;;;;;5.37;3.80;;;;;;;;;;4994917;28;20101;-76
2023/05/31 08:01:22;;;;;;;6.37;3.77;;;;;;;;;;4996937;28;20261;-64
2023/05/31 08:03:49;;;;;;;4.47;3.67;;;;;;;;;;4993153;28;20348;-74
2023/05/31 08:06:14;;;;;;;5.57;3.80;;;;;;;;;;4992304;28;20027;-66
2023/05/31 08:08:42;;;;;;;5.97;3.80;;;;;;;;;;4999019;28;20590;-68
2023/05/31 08:11:07;;;;;;;7.38;4.15;;;;;;;;;;5001432;28;20034;-75
2023/05/31 08:13:32;;;;;;;4.63;3.53;;;;;;;;;;4992698;28;20126;-66
2023/05/31 08:15:57;;;;;;;5.80;4.23;;;;;;;;;;5007733;28;20089;-63
2023/05/31 08:18:23;;;;;;;6.40;3.80;;;;;;;;;;5018283;28;20308;-69
2023/05/31 08:20:48;;;;;;;6.03;3.85;;;;;;;;;;4997041;28;20124;-61
2023/05/31 08:23:19;;;;;;;5.43;3.67;;;;;;;;;;5002601;28;20394;-63
2023/05/31 08:25:45;;;;;;;4.65;3.58;;;;;;;;;;4991302;28;20061;-73
2023/05/31 08:28:10;;;;;;;7.10;3.80;;;;;;;;;;4990798;28;20038;-66
2023/05/31 08:30:35;;;;;;;4.93;3.53;;;;;;;;;;4992126;28;20034;-70
2023/05/31 08:33:01;;;;;;;5.77;3.80;;;;;;;;;;4993539;28;20092;-70
2023/05/31 08:35:26;;;;;;;5.50;4.15;;;;;;;;;;4995941;28;20810;-69
2023/05/31 08:37:51;;;;;;;4.83;3.50;;;;;;;;;;4992335;28;20035;-64
2023/05/31 08:40:17;;;;;;;6.27;4.37;;;;;;;;;;4994493;28;20341;-70
2023/05/31 08:43:00;;;;;;;4.82;3.70;;;;;;;;;;4989336;28;20684;-68
2023/05/31 08:45:28;;;;;;;5.45;3.65;;;;;;;;;;5001947;28;20042;-70
2023/05/31 08:47:57;;;;;;;4.75;3.60;;;;;;;;;;4996385;28;20056;-68
2023/05/31 08:50:24;;;;;;;6.47;3.70;;;;;;;;;;5006235;28;20046;-75
2023/05/31 08:52:49;;;;;;;5.30;3.28;;;;;;;;;;4991212;28;20033;-69
2023/05/31 08:55:14;;;;;;;4.68;3.35;;;;;;;;;;4993190;28;20034;-65
2023/05/31 08:57:40;;;;;;;4.50;3.40;;;;;;;;;;4978852;28;20044;-71
2023/05/31 09:00:08;;;;;;;5.07;3.65;;;;;;;;;;5010326;28;20042;-71
2023/05/31 09:02:33;;;;;;;4.47;3.40;;;;;;;;;;4983168;28;20049;-64
2023/05/31 09:04:58;;;;;;;5.88;4.32;;;;;;;;;;5000443;28;20416;-68
2023/05/31 09:07:24;;;;;;;4.77;3.73;;;;;;;;;;4994253;28;20046;-69
2023/05/31 09:09:49;;;;;;;7.00;3.67;;;;;;;;;;4989647;28;20070;-71
2023/05/31 09:12:14;;;;;;;5.10;3.47;;;;;;;;;;4991915;28;20035;-65
2023/05/31 09:14:40;;;;;;;5.57;3.40;;;;;;;;;;4989853;28;20030;-69
2023/05/31 09:17:05;;;;;;;5.07;3.90;;;;;;;;;;4981115;28;20066;-74
2023/05/31 09:19:30;;;;;;;5.90;3.70;;;;;;;;;;4994509;28;20544;-68
2023/05/31 09:21:55;;;;;;;5.60;3.75;;;;;;;;;;4982101;28;20031;-67
2023/05/31 09:24:22;;;;;;;4.70;3.57;;;;;;;;;;4992614;28;20027;-71
2023/05/31 09:26:50;;;;;;;4.95;3.45;;;;;;;;;;4995884;28;20730;-74
2023/05/31 09:29:17;;;;;;;4.63;3.70;;;;;;;;;;4993431;28;20047;-70
2023/05/31 09:31:42;;;;;;;4.57;3.65;;;;;;;;;;4993840;28;20038;-69
2023/05/31 09:34:26;;;;;;;4.32;3.58;;;;;;;;;;5009764;28;20064;-75
2023/05/31 09:36:52;;;;;;;5.05;3.70;;;;;;;;;;5003707;28;20030;-70
2023/05/31 09:39:17;;;;;;;4.93;4.10;;;;;;;;;;4996542;28;20129;-76
2023/05/31 09:41:42;;;;;;;4.75;3.53;;;;;;;;;;5005810;28;20116;-67
2023/05/31 09:44:08;;;;;;;4.63;3.53;;;;;;;;;;4994750;28;20142;-71
2023/05/31 09:46:33;;;;;;;5.82;3.47;;;;;;;;;;5009792;28;20038;-69
2023/05/31 09:49:06;;;;;;;6.23;3.73;;;;;;;;;;4985571;28;20057;-68
2023/05/31 09:51:34;;;;;;;5.97;3.70;;;;;;;;;;5009157;28;20065;-72
2023/05/31 09:54:01;;;;;;;5.35;3.90;;;;;;;;;;4995398;28;20117;-73
2023/05/31 09:56:27;;;;;;;4.07;3.33;;;;;;;;;;4993341;28;20020;-74
2023/05/31 09:58:52;;;;;;;5.38;3.47;;;;;;;;;;5000101;28;20040;-72
2023/05/31 10:01:18;;;;;;;4.70;3.80;;;;;;;;;;5005606;28;20066;-74
2023/05/31 10:03:43;;;;;;;4.43;3.55;;;;;;;;;;4999807;28;20048;-64
2023/05/31 10:06:09;;;;;;;4.32;3.80;;;;;;;;;;5005125;28;20044;-67
2023/05/31 10:08:35;;;;;;;5.00;3.40;;;;;;;;;;5002961;28;20044;-72
2023/05/31 10:11:00;;;;;;;4.90;3.57;;;;;;;;;;5003401;28;20038;-66
2023/05/31 10:13:29;;;;;;;5.13;3.70;;;;;;;;;;5022272;28;20798;-66
2023/05/31 10:15:56;;;;;;;4.80;3.88;;;;;;;;;;5009634;28;20081;-67
2023/05/31 10:18:23;;;;;;;5.68;3.60;;;;;;;;;;5016494;28;20053;-72
2023/05/31 10:20:49;;;;;;;3.97;3.35;;;;;;;;;;4992007;28;20056;-68
2023/05/31 10:23:24;;;;;;;4.65;3.60;;;;;;;;;;4987117;28;20035;-68
2023/05/31 10:26:13;;;;;;;4.43;3.47;;;;;;;;;;5017866;28;20068;-62
2023/05/31 10:28:58;;;;;;;5.90;3.88;;;;;;;;;;5012022;28;20038;-69
2023/05/31 10:31:27;;;;;;;4.45;3.60;;;;;;;;;;4994392;28;20030;-68
2023/05/31 10:33:53;;;;;;;4.20;3.60;;;;;;;;;;5001569;28;20030;-68
2023/05/31 10:36:18;;;;;;;6.05;3.72;;;;;;;;;;5008045;28;20056;-65
2023/05/31 10:38:52;;;;;;;4.70;3.40;;;;;;;;;;5019176;28;20180;-63
2023/05/31 10:41:18;;;;;;;4.28;3.28;;;;;;;;;;5014550;28;20030;-71
2023/05/31 10:44:02;;;;;;;4.63;3.80;;;;;;;;;;5002596;28;20049;-67
2023/05/31 10:46:28;;;;;;;4.60;3.60;;;;;;;;;;5010461;28;20038;-68
2023/05/31 10:48:53;;;;;;;5.18;3.40;;;;;;;;;;4985587;28;20088;-69
2023/05/31 10:51:19;;;;;;;5.33;3.77;;;;;;;;;;5009386;28;20082;-65
2023/05/31 10:53:47;;;;;;;5.53;3.50;;;;;;;;;;5002071;28;20035;-63
2023/05/31 10:56:13;;;;;;;5.10;3.60;;;;;;;;;;5000509;28;20219;-66
2023/05/31 10:58:42;;;;;;;6.25;3.67;;;;;;;;;;5000144;28;20393;-67
2023/05/31 11:01:11;;;;;;;4.32;3.42;;;;;;;;;;5010526;28;20030;-67
2023/05/31 11:03:43;;;;;;;3.97;3.22;;;;;;;;;;5001720;28;20092;-64
2023/05/31 11:06:09;;;;;;;4.63;3.55;;;;;;;;;;4999034;28;20066;-69
2023/05/31 11:08:34;;;;;;;4.65;3.50;;;;;;;;;;4993257;28;20034;-71
2023/05/31 11:11:18;;;;;;;4.45;3.28;;;;;;;;;;4995133;28;20030;-70
2023/05/31 11:14:05;;;;;;;4.00;3.42;;;;;;;;;;4999804;28;20096;-67
2023/05/31 11:16:32;;;;;;;3.80;3.15;;;;;;;;;;4999556;28;20054;-70
2023/05/31 11:19:03;;;;;;;4.25;3.28;;;;;;;;;;4998810;28;20045;-63
2023/05/31 11:21:48;;;;;;;6.60;3.20;;;;;;;;;;4996912;28;20066;-67
2023/05/31 11:24:29;;;;;;;4.47;3.22;;;;;;;;;;4994544;28;20049;-72
2023/05/31 11:26:55;;;;;;;5.07;3.22;;;;;;;;;;5015123;28;20077;-61
2023/05/31 11:29:20;;;;;;;4.45;3.17;;;;;;;;;;5004226;28;20038;-75
2023/05/31 11:31:54;;;;;;;6.10;3.50;;;;;;;;;;5010676;28;20233;-64
2023/05/31 11:34:24;;;;;;;4.90;3.30;;;;;;;;;;5011628;28;20050;-67
2023/05/31 11:36:49;;;;;;;;;;;;;;;;;;5001276;28;20042;-66
2023/05/31 11:39:15;;;;;;;4.75;3.65;;;;;;;;;;4999636;28;19914;-66
2023/05/31 11:41:41;;;;;;;4.85;3.35;;;;;;;;;;5001096;28;20049;-66
2023/05/31 11:44:06;;;;;;;4.97;2.93;;;;;;;;;;5013812;28;20125;-73
2023/05/31 11:46:31;;;;;;;4.07;2.97;;;;;;;;;;4995133;28;20070;-72
2023/05/31 11:48:57;;;;;;;4.80;3.23;;;;;;;;;;4995960;28;20691;-63
2023/05/31 11:51:23;;;;;;;4.30;3.03;;;;;;;;;;5001066;28;20030;-72
2023/05/31 11:53:48;;;;;;;7.28;3.17;;;;;;;;;;5023997;28;20117;-69
2023/05/31 11:56:14;;;;;;;4.70;3.20;;;;;;;;;;5016201;28;20044;-75
2023/05/31 11:58:45;;;;;;;5.15;3.00;;;;;;;;;;5006890;28;20337;-65
2023/05/31 12:01:11;;;;;;;7.47;3.50;;;;;;;;;;5016242;28;20034;-66
2023/05/31 12:03:39;;;;;;;6.88;3.13;;;;;;;;;;5014710;28;20041;-74
2023/05/31 12:06:04;;;;;;;6.90;3.05;;;;;;;;;;5017072;28;20037;-65
2023/05/31 12:08:30;;;;;;;7.03;3.35;;;;;;;;;;5005562;28;20093;-65
2023/05/31 12:11:00;;;;;;;5.97;3.20;;;;;;;;;;5005888;28;20092;-71
2023/05/31 12:13:26;;;;;;;4.53;3.13;;;;;;;;;;5004589;28;20042;-76
2023/05/31 12:15:53;;;;;;;4.43;2.83;;;;;;;;;;5018533;28;20146;-73
2023/05/31 12:18:18;;;;;;;5.78;3.38;;;;;;;;;;5002248;28;20081;-65
2023/05/31 12:20:43;;;;;;;6.30;3.20;;;;;;;;;;5005062;28;20065;-69
2023/05/31 12:23:12;;;;;;;4.90;3.23;;;;;;;;;;5006257;28;20107;-70
2023/05/31 12:25:43;;;;;;;6.78;3.45;;;;;;;;;;5008834;28;20027;-80
2023/05/31 12:28:08;;;;;;;5.22;3.00;;;;;;;;;;5008761;28;20030;-79
2023/05/31 12:30:33;;;;;;;6.67;3.20;;;;;;;;;;4985561;28;20060;-68
2023/05/31 12:32:58;;;;;;;6.63;3.43;;;;;;;;;;5011703;28;20049;-61
2023/05/31 12:35:24;;;;;;;5.68;3.28;;;;;;;;;;5009032;28;20045;-74
2023/05/31 12:37:50;;;;;;;5.68;3.38;;;;;;;;;;4995476;28;20033;-66
2023/05/31 12:40:15;;;;;;;5.38;3.55;;;;;;;;;;5002292;28;20149;-74
2023/05/31 12:42:42;;;;;;;6.45;3.65;;;;;;;;;;4996896;28;20046;-76
2023/05/31 12:45:07;;;;;;;6.70;3.65;;;;;;;;;;5001445;28;20044;-66
2023/05/31 12:47:33;;;;;;;6.25;3.70;;;;;;;;;;5005657;28;20030;-70
2023/05/31 12:50:06;;;;;;;7.00;3.30;;;;;;;;;;4994576;28;20156;-65
2023/05/31 12:52:40;;;;;;;6.97;3.50;;;;;;;;;;5000973;28;20107;-77
2023/05/31 12:55:06;;;;;;;5.88;4.15;;;;;;;;;;5007603;28;20042;-67
2023/05/31 12:57:31;;;;;;;4.70;3.40;;;;;;;;;;5006069;28;20050;-66
2023/05/31 12:59:57;;;;;;;6.22;3.88;;;;;;;;;;5008190;28;20068;-63
2023/05/31 13:02:22;;;;;;;5.85;3.50;;;;;;;;;;5000962;28;20031;-67
2023/05/31 13:04:48;;;;;;;7.53;3.30;;;;;;;;;;5002808;28;20095;-76
2023/05/31 13:07:13;;;;;;;4.57;3.20;;;;;;;;;;4991926;28;20278;-69
2023/05/31 13:09:38;;;;;;;6.15;3.60;;;;;;;;;;5003822;28;20325;-63
2023/05/31 13:12:04;;;;;;;6.68;3.80;;;;;;;;;;4985977;28;20038;-75
2023/05/31 13:14:29;;;;;;;6.15;3.22;;;;;;;;;;4991473;28;20045;-78
2023/05/31 13:16:55;;;;;;;5.55;3.58;;;;;;;;;;5002628;28;20052;-73
2023/05/31 13:19:20;;;;;;;6.13;3.83;;;;;;;;;;4989907;28;20054;-76
2023/05/31 13:21:45;;;;;;;6.50;3.30;;;;;;;;;;4984952;28;20034;-75
2023/05/31 13:24:10;;;;;;;7.72;4.05;;;;;;;;;;4994015;28;20046;-62
2023/05/31 13:26:36;;;;;;;6.10;4.33;;;;;;;;;;4987448;28;20045;-66
2023/05/31 13:29:01;;;;;;;6.07;3.90;;;;;;;;;;4984181;28;20103;-66
2023/05/31 13:31:27;;;;;;;7.03;4.10;;;;;;;;;;4992420;28;20041;-66
2023/05/31 13:33:52;;;;;;;7.97;3.65;;;;;;;;;;4991868;28;20281;-65
2023/05/31 13:36:17;;;;;;;6.53;3.60;;;;;;;;;;4997526;28;20521;-66
2023/05/31 13:38:43;;;;;;;5.47;3.60;;;;;;;;;;4988660;28;20039;-66
2023/05/31 13:41:08;;;;;;;6.40;3.73;;;;;;;;;;4990414;28;20034;-67
2023/05/31 13:43:33;;;;;;;6.03;3.67;;;;;;;;;;4983526;28;20384;-66
2023/05/31 13:45:59;;;;;;;8.05;4.43;;;;;;;;;;4998953;28;20117;-63
2023/05/31 13:48:24;;;;;;;9.15;4.32;;;;;;;;;;4989084;28;20030;-66
2023/05/31 13:50:51;;;;;;;8.02;3.95;;;;;;;;;;5001935;28;20165;-64
2023/05/31 13:53:16;;;;;;;8.65;3.95;;;;;;;;;;4988672;28;20038;-64
2023/05/31 13:55:41;;;;;;;9.88;4.00;;;;;;;;;;4983738;28;20051;-65
2023/05/31 13:58:06;;;;;;;6.95;3.80;;;;;;;;;;4983985;28;20030;-63
2023/05/31 14:00:32;;;;;;;7.40;3.90;;;;;;;;;;4986808;28;20054;-63
2023/05/31 14:02:58;;;;;;;9.95;4.22;;;;;;;;;;5000731;28;20328;-64
2023/05/31 14:05:23;;;;;;;11.45;4.30;;;;;;;;;;5002615;28;20448;-64
2023/05/31 14:07:49;;;;;;;9.23;3.83;;;;;;;;;;4973173;28;20038;-66
2023/05/31 14:10:14;;;;;;;6.60;3.95;;;;;;;;;;4983691;28;20046;-65
2023/05/31 14:12:40;;;;;;;6.63;4.15;;;;;;;;;;4995094;28;20088;-64
2023/05/31 14:15:05;;;;;;;10.73;4.70;;;;;;;;;;4985264;28;20046;-62
2023/05/31 14:17:30;;;;;;;9.18;4.40;;;;;;;;;;4990917;28;20335;-64
2023/05/31 14:19:56;;;;;;;10.35;4.65;;;;;;;;;;4997636;28;20036;-64
2023/05/31 14:22:21;;;;;;;9.63;4.70;;;;;;;;;;4983777;28;20047;-64
2023/05/31 14:24:46;;;;;;;9.45;5.10;;;;;;;;;;4985619;28;20694;-64
2023/05/31 14:27:12;;;;;;;8.25;4.63;;;;;;;;;;4993045;28;20030;-64
2023/05/31 14:29:37;;;;;;;8.75;4.28;;;;;;;;;;4987894;28;20096;-65
2023/05/31 14:32:03;;;;;;;9.30;5.00;;;;;;;;;;4985135;28;20042;-65
2023/05/31 14:34:28;;;;;;;9.05;5.07;;;;;;;;;;4983585;28;20335;-65
2023/05/31 14:36:53;;;;;;;9.57;5.07;;;;;;;;;;4983719;28;20464;-66